Latest Coastal Weather Observations for Gold Coast Seaway

IDQ60701

Issued at 3:51 pm EST Friday 24 February 2017 (issued every 10 minutes, with the page automatically refreshed every 10 minutes)

About coastal observations | Map of coastal stations | Coastal observations for QLD | Marine services | Other Formats
Station Details ID: 040764 Name: GOLD COAST SEAWAY Lat: -27.94 Lon: 153.43 Height: 2.98 m
Data from the previous 72 hours. | See also: Recent months at Gold Coast Seaway
Date/Time
EST
Temp
°C
Wind Pressure Rain since
9am
mm
Weather Cloud Vis
km
Sea
Height
m
Swell
Dir  Spd
kts
Gust
kts
hPa Trend Height
m
Period
s
Dir
24/03:30pm 28.2 SE 17 19 1016.0 - 0.0 - - - - - - -
24/03:00pm 27.8 SE 17 20 1016.2 - 0.0 - - - - - - -
24/02:30pm 27.9 SE 17 20 1016.4 - 0.0 - - - - - - -
24/02:00pm 28.5 ESE 17 19 1016.5 - 0.0 - - - - - - -
24/01:30pm 28.8 ESE 17 19 1016.7 - 0.0 - - - - - - -
24/01:00pm 28.7 SE 18 20 1017.1 - 0.0 - - - - - - -
24/12:30pm 28.8 SE 15 17 1017.5 - 0.0 - - - - - - -
24/12:00pm 29.2 SE 15 17 1017.9 - 0.0 - - - - - - -
24/11:30am 29.8 SE 15 17 1018.1 - 0.0 - - - - - - -
24/11:00am 30.2 SE 13 15 1018.4 - 0.0 - - - - - - -
24/10:30am 29.6 SSE 12 15 1018.8 - 0.0 - - - - - - -
24/10:00am 29.3 SSE 12 15 1018.9 - 0.0 - - - - - - -
24/09:30am 28.5 SSE 12 15 1018.9 - 0.0 - - - - - - -
24/09:00am 28.0 SSE 12 15 1019.0 - 0.0 - - - - - - -
24/08:30am 26.9 SSE 12 15 1019.0 - 0.0 - - - - - - -
24/08:00am 25.9 S 15 18 1018.6 - 0.0 - - - - - - -
24/07:30am 25.0 S 12 17 1018.4 - 0.0 - - - - - - -
24/07:00am 23.3 S 8 11 1018.2 - 0.0 - - - - - - -
24/06:30am 22.1 S 8 12 1018.0 - 0.0 - - - - - - -
24/06:00am 21.0 S 8 10 1017.7 - 0.0 - - - - - - -
24/05:30am 20.5 SSW 7 9 1017.3 - 0.0 - - - - - - -
24/05:00am 20.7 S 7 8 1017.0 - 0.0 - - - - - - -
24/04:30am 20.7 SSW 6 7 1017.0 - 0.0 - - - - - - -
24/04:00am 20.9 SSW 6 8 1016.8 - 0.0 - - - - - - -
24/03:30am 21.2 S 7 9 1016.9 - 0.0 - - - - - - -
24/03:00am 21.1 S 9 12 1017.0 - 0.0 - - - - - - -
24/02:30am 21.5 S 10 14 1017.1 - 0.0 - - - - - - -
24/02:00am 21.6 SSE 11 15 1017.2 - 0.0 - - - - - - -
24/01:30am 21.7 S 11 14 1017.6 - 0.0 - - - - - - -
24/01:00am 21.3 S 8 9 1017.7 - 0.0 - - - - - - -
24/12:30am 21.6 SSW 7 9 1018.0 - 0.0 - - - - - - -
24/12:00am 21.9 SSW 7 10 1018.2 - 0.0 - - - - - - -
 
Date/Time
EST
Temp
°C
Wind Pressure Rain since
9am
mm
Weather Cloud Vis
km
Sea
Height
m
Swell
Dir  Spd
kts
Gust
kts
hPa Trend Height
m
Period
s
Dir
23/11:30pm 21.8 SSW 7 9 1018.5 - 0.0 - - - - - - -
23/11:00pm 22.1 S 10 14 1018.7 - 0.0 - - - - - - -
23/10:30pm 22.6 SSE 13 15 1018.7 - 0.0 - - - - - - -
23/10:00pm 22.5 S 10 15 1019.0 - 0.0 - - - - - - -
23/09:30pm 22.9 S 10 13 1019.1 - 0.0 - - - - - - -
23/09:00pm 23.7 SSE 14 19 1019.1 - 0.0 - - - - - - -
23/08:30pm 24.3 SE 15 19 1019.0 - 0.0 - - - - - - -
23/08:00pm 24.4 SE 16 19 1018.7 - 0.0 - - - - - - -
23/07:30pm 24.4 SE 17 21 1018.6 - 0.0 - - - - - - -
23/07:00pm 24.3 SSE 17 21 1018.4 - 0.0 - - - - - - -
23/06:30pm 24.4 SSE 18 21 1018.1 - 0.0 - - - - - - -
23/06:00pm 24.9 SE 21 26 1017.8 - 0.0 - - - - - - -
23/05:30pm 25.4 SE 20 24 1017.7 - 0.0 - - - - - - -
23/05:00pm 26.2 SE 21 24 1017.4 - 0.0 - - - - - - -
23/04:30pm 26.7 SE 22 26 1017.3 - 0.0 - - - - - - -
23/04:00pm 27.0 SE 21 25 1017.3 - 0.0 - - - - - - -
23/03:30pm 27.6 SE 22 26 1017.4 - 0.0 - - - - - - -
23/03:00pm 27.9 SE 22 26 1017.6 - 0.0 - - - - - - -
23/02:30pm 28.2 SE 21 26 1017.6 - 0.0 - - - - - - -
23/02:00pm 28.6 SE 21 25 1017.6 - 0.0 - - - - - - -
23/01:30pm 28.8 SE 22 26 1017.9 - 0.0 - - - - - - -
23/01:00pm 29.1 SE 20 25 1018.0 - 0.0 - - - - - - -
23/12:30pm 28.9 SE 19 22 1018.2 - 0.0 - - - - - - -
23/12:00pm 29.0 SE 19 22 1018.6 - 0.0 - - - - - - -
23/11:30am 29.0 SE 17 20 1018.8 - 0.0 - - - - - - -
23/11:00am 29.5 SE 17 20 1019.0 - 0.0 - - - - - - -
23/10:30am 29.2 SE 15 17 1019.4 - 0.0 - - - - - - -
23/10:00am 28.7 SSE 15 17 1019.4 - 0.0 - - - - - - -
23/09:30am 27.9 SSE 14 17 1019.5 - 0.0 - - - - - - -
23/09:00am 26.7 SSE 15 19 1019.4 - 0.0 - - - - - - -
23/08:30am 26.3 SSE 16 19 1019.3 - 0.0 - - - - - - -
23/08:00am 25.5 S 17 20 1019.3 - 0.0 - - - - - - -
23/07:30am 24.7 S 16 19 1019.0 - 0.0 - - - - - - -
23/07:00am 23.8 S 17 19 1018.7 - 0.0 - - - - - - -
23/06:30am 23.0 S 15 18 1018.6 - 0.0 - - - - - - -
23/06:00am 22.1 S 13 18 1018.4 - 0.0 - - - - - - -
23/05:30am 22.2 S 12 15 1018.1 - 0.0 - - - - - - -
23/05:00am 22.2 S 11 16 1017.9 - 0.0 - - - - - - -
23/04:30am 22.8 S 10 15 1017.8 - 0.0 - - - - - - -
23/04:00am 23.1 SSE 12 15 1017.6 - 0.0 - - - - - - -
23/03:30am 22.9 SSE 11 15 1017.6 - 0.0 - - - - - - -
23/03:00am 23.0 S 11 15 1017.9 - 0.0 - - - - - - -
23/02:30am 23.1 S 10 14 1017.9 - 0.0 - - - - - - -
23/02:00am 23.0 S 10 14 1018.0 - 0.0 - - - - - - -
23/01:30am 23.0 S 13 17 1018.2 - 0.0 - - - - - - -
23/01:00am 23.0 S 12 17 1018.4 - 0.0 - - - - - - -
23/12:30am 23.2 S 13 16 1018.8 - 0.0 - - - - - - -
23/12:00am 23.2 S 13 15 1018.9 - 0.0 - - - - - - -
 
Date/Time
EST
Temp
°C
Wind Pressure Rain since
9am
mm
Weather Cloud Vis
km
Sea
Height
m
Swell
Dir  Spd
kts
Gust
kts
hPa Trend Height
m
Period
s
Dir
22/11:30pm 23.4 S 12 16 1019.1 - 0.0 - - - - - - -
22/11:00pm 24.1 SE 17 20 1019.2 - 0.0 - - - - - - -
22/10:30pm 24.1 SE 18 20 1019.4 - 0.0 - - - - - - -
22/10:00pm 24.0 SE 19 22 1019.5 - 0.0 - - - - - - -
22/09:30pm 24.3 SE 19 22 1019.4 - 0.0 - - - - - - -
22/09:00pm 24.4 SE 19 22 1019.5 - 0.0 - - - - - - -
22/08:30pm 24.5 SE 18 22 1019.4 - 0.0 - - - - - - -
22/08:00pm 24.4 SSE 19 22 1018.9 - 0.0 - - - - - - -
22/07:30pm 24.2 SE 19 24 1018.8 - 0.0 - - - - - - -
22/07:00pm 24.0 SSE 19 23 1018.6 - 0.0 - - - - - - -
22/06:30pm 24.3 SSE 19 24 1018.4 - 0.0 - - - - - - -
22/06:00pm 24.7 SSE 22 27 1018.2 - 0.0 - - - - - - -
22/05:30pm 25.4 SSE 21 26 1018.0 - 0.0 - - - - - - -
22/05:00pm 26.0 SE 21 26 1017.6 - 0.0 - - - - - - -
22/04:30pm 26.4 SE 21 26 1017.5 - 0.0 - - - - - - -
22/04:00pm 26.9 SSE 20 26 1017.6 - 0.0 - - - - - - -
22/03:30pm 27.4 SSE 20 24 1017.4 - 0.0 - - - - - - -
22/03:00pm 28.1 SSE 20 26 1017.5 - 0.0 - - - - - - -
22/02:30pm 27.6 SSE 21 27 1017.9 - 0.0 - - - - - - -
22/02:00pm 28.3 SE 20 25 1018.2 - 0.0 - - - - - - -
22/01:30pm 28.1 SE 19 24 1018.4 - 0.0 - - - - - - -
22/01:00pm 29.3 SE 19 25 1018.6 - 0.0 - - - - - - -
22/12:30pm 28.8 SE 19 22 1018.8 - 0.0 - - - - - - -
22/12:00pm 29.0 SSE 19 23 1019.1 - 0.0 - - - - - - -
22/11:30am 29.1 SSE 19 23 1019.4 - 0.0 - - - - - - -
22/11:00am 29.5 SE 17 21 1019.6 - 0.0 - - - - - - -
22/10:30am 28.7 SE 17 21 1019.9 - 0.0 - - - - - - -
22/10:00am 29.5 SE 19 22 1019.9 - 0.0 - - - - - - -
22/09:30am 27.1 SE 19 23 1020.0 - 0.0 - - - - - - -
22/09:00am 27.1 SSE 17 20 1020.0 - 0.0 - - - - - - -
22/08:30am 25.5 SSE 19 22 1019.9 - 0.0 - - - - - - -
22/08:00am 25.8 S 16 21 1019.6 - 0.0 - - - - - - -
22/07:30am 24.0 S 15 19 1019.4 - 0.0 - - - - - - -
22/07:00am 23.8 S 15 19 1019.2 - 0.0 - - - - - - -
22/06:30am 23.3 S 14 17 1018.9 - 0.0 - - - - - - -
22/06:00am 22.8 S 13 18 1018.6 - 0.0 - - - - - - -
22/05:30am 22.8 S 14 18 1018.1 - 0.0 - - - - - - -
22/05:00am 22.6 S 9 12 1018.1 - 0.0 - - - - - - -
22/04:30am 22.8 S 13 16 1017.8 - 0.0 - - - - - - -
22/04:00am 22.6 S 8 12 1017.7 - 0.0 - - - - - - -
22/03:30am 22.8 S 9 14 1017.5 - 0.0 - - - - - - -
22/03:00am 22.8 SSW 5 6 1017.3 - 0.0 - - - - - - -
22/02:30am 23.1 S 8 11 1017.3 - 0.0 - - - - - - -
22/02:00am 23.4 S 10 15 1017.5 - 0.0 - - - - - - -
22/01:30am 23.3 S 10 15 1017.6 - 0.0 - - - - - - -
22/01:00am 23.6 S 11 17 1017.7 - 0.0 - - - - - - -
22/12:30am 24.5 SE 16 19 1017.9 - 0.0 - - - - - - -
22/12:00am 24.5 SE 16 20 1018.1 - 0.0 - - - - - - -
 
Date/Time
EST
Temp
°C
Wind Pressure Rain since
9am
mm
Weather Cloud Vis
km
Sea
Height
m
Swell
Dir  Spd
kts
Gust
kts
hPa Trend Height
m
Period
s
Dir
21/11:30pm 24.6 SE 17 19 1018.3 - 0.0 - - - - - - -
21/11:00pm 24.6 SE 17 21 1018.4 - 0.0 - - - - - - -
21/10:30pm 24.7 SE 17 20 1018.9 - 0.0 - - - - - - -
21/10:00pm 24.7 SE 17 20 1019.2 - 0.0 - - - - - - -
21/09:30pm 24.7 SE 17 21 1019.1 - 0.0 - - - - - - -
21/09:00pm 24.7 SE 18 21 1019.1 - 0.0 - - - - - - -
21/08:30pm 24.8 SE 17 21 1018.8 - 0.0 - - - - - - -
21/08:00pm 24.9 SE 18 20 1018.6 - 0.0 - - - - - - -
21/07:30pm 25.0 SE 18 20 1018.2 - 0.0 - - - - - - -
21/07:00pm 25.1 SE 18 20 1018.2 - 0.0 - - - - - - -
21/06:30pm 25.2 SE 18 22 1017.9 - 0.0 - - - - - - -
21/06:00pm 25.5 SE 18 20 1017.4 - 0.0 - - - - - - -
21/05:30pm 25.8 SE 17 20 1017.2 - 0.0 - - - - - - -
21/05:00pm 26.6 SE 18 22 1016.8 - 0.0 - - - - - - -
21/04:30pm 26.7 SE 18 21 1016.5 - 0.0 - - - - - - -
21/04:00pm 26.9 SSE 19 22 1016.4 - 0.0 - - - - - - -

Other Formats:

Comma delimited format used in spreadsheet applications
http://www.bom.gov.au/fwo/IDQ60701/IDQ60701.94580.axf

JavaScript Object Notation format (JSON) in row-major order
http://www.bom.gov.au/fwo/IDQ60701/IDQ60701.94580.json